createdAt,value
2023-01-11T00:02:03.165Z,39.60
2023-01-11T00:04:30.819Z,40.60
2023-01-11T00:06:58.443Z,39.40
2023-01-11T00:09:25.448Z,39.40
2023-01-11T00:11:52.361Z,38.00
2023-01-11T00:14:19.213Z,39.10
2023-01-11T00:16:46.073Z,40.80
2023-01-11T00:19:13.172Z,40.30
2023-01-11T00:21:40.045Z,41.60
2023-01-11T00:24:06.957Z,38.90
2023-01-11T00:26:33.831Z,39.40
2023-01-11T00:29:00.680Z,37.80
2023-01-11T00:31:27.557Z,38.90
2023-01-11T00:33:55.232Z,38.20
2023-01-11T00:36:22.044Z,36.10
2023-01-11T00:38:53.980Z,36.60
2023-01-11T00:41:41.468Z,35.50
2023-01-11T00:44:29.903Z,38.10
2023-01-11T00:47:16.312Z,37.20
2023-01-11T00:49:44.183Z,36.40
2023-01-11T00:52:11.192Z,35.30
2023-01-11T00:54:42.467Z,35.20
2023-01-11T00:57:09.863Z,35.10
2023-01-11T00:59:39.639Z,34.20
2023-01-11T01:04:33.938Z,33.30
2023-01-11T01:07:01.131Z,34.10
2023-01-11T01:09:28.560Z,35.20
2023-01-11T01:11:55.429Z,34.30
2023-01-11T01:14:30.040Z,34.10
2023-01-11T01:17:08.503Z,34.90
2023-01-11T01:19:38.204Z,34.50
2023-01-11T01:22:05.465Z,33.70
2023-01-11T01:24:33.368Z,33.60
2023-01-11T01:27:00.424Z,28.60
2023-01-11T01:29:27.492Z,30.00
2023-01-11T01:31:54.555Z,28.50
2023-01-11T01:34:21.384Z,30.90
2023-01-11T01:36:48.258Z,29.70
2023-01-11T01:39:15.484Z,29.40
2023-01-11T01:41:42.485Z,29.60
2023-01-11T01:44:47.316Z,30.40
2023-01-11T01:47:14.983Z,30.20
2023-01-11T01:49:44.500Z,30.20
2023-01-11T01:52:12.647Z,29.10
2023-01-11T01:54:44.460Z,29.40
2023-01-11T01:57:17.678Z,29.00
2023-01-11T01:59:46.016Z,28.30
2023-01-11T02:02:13.005Z,26.80
2023-01-11T02:04:43.010Z,25.90
2023-01-11T02:07:22.957Z,26.20
2023-01-11T02:10:12.739Z,27.30
2023-01-11T02:12:50.417Z,26.60
2023-01-11T02:15:19.941Z,26.90
2023-01-11T02:17:46.790Z,25.40
2023-01-11T02:20:32.293Z,25.80
2023-01-11T02:23:23.843Z,25.20
2023-01-11T02:26:12.636Z,25.70
2023-01-11T02:28:45.515Z,26.70
2023-01-11T02:31:21.736Z,26.10
2023-01-11T02:33:58.421Z,26.00
2023-01-11T02:36:49.618Z,24.80
2023-01-11T02:39:28.171Z,24.60
2023-01-11T02:42:40.019Z,25.30
2023-01-11T02:45:25.079Z,21.30
2023-01-11T02:48:07.298Z,22.80
2023-01-11T02:51:02.276Z,23.40
2023-01-11T02:53:47.836Z,20.90
2023-01-11T02:56:21.633Z,23.70
2023-01-11T02:58:51.412Z,25.30
2023-01-11T03:01:19.874Z,22.10
2023-01-11T03:05:11.629Z,22.40
2023-01-11T03:07:46.498Z,23.50
2023-01-11T03:10:37.503Z,22.40
2023-01-11T03:13:16.417Z,20.90
2023-01-11T03:19:22.084Z,23.50
2023-01-11T03:21:57.719Z,21.30
2023-01-11T03:24:38.341Z,21.20
2023-01-11T03:27:19.883Z,22.10
2023-01-11T03:29:58.773Z,22.10
2023-01-11T03:32:44.937Z,22.10
2023-01-11T03:35:19.597Z,21.20
2023-01-11T03:37:55.630Z,20.70
2023-01-11T03:40:43.173Z,21.10
2023-01-11T03:43:14.138Z,20.80
2023-01-11T03:45:50.869Z,20.90
2023-01-11T03:48:22.255Z,21.50
2023-01-11T03:50:52.478Z,22.60
2023-01-11T03:53:23.239Z,21.90
2023-01-11T03:55:56.142Z,21.40
2023-01-11T03:58:27.132Z,21.20
2023-01-11T04:00:58.241Z,20.20
2023-01-11T04:03:27.140Z,21.50
2023-01-11T04:06:01.369Z,22.40
2023-01-11T04:08:28.702Z,20.40
2023-01-11T04:10:56.113Z,21.40
2023-01-11T04:13:23.055Z,20.20
2023-01-11T04:15:49.873Z,19.70
2023-01-11T04:18:16.709Z,19.60
2023-01-11T04:20:43.523Z,20.60
2023-01-11T04:23:10.572Z,20.10
2023-01-11T04:25:37.482Z,20.50
2023-01-11T04:28:04.403Z,17.60
2023-01-11T04:30:31.233Z,16.90
2023-01-11T04:33:00.935Z,16.90
2023-01-11T04:35:27.869Z,16.60
2023-01-11T04:37:58.043Z,18.40
2023-01-11T04:40:25.567Z,20.10
2023-01-11T04:42:52.422Z,37.20
2023-01-11T04:45:19.484Z,16.80
2023-01-11T04:47:46.321Z,18.00
2023-01-11T04:50:13.313Z,16.50
2023-01-11T04:52:41.904Z,14.40
2023-01-11T04:55:09.510Z,16.60
2023-01-11T04:57:36.868Z,16.00
2023-01-11T05:00:10.996Z,17.70
2023-01-11T05:02:41.361Z,17.40
2023-01-11T05:07:54.975Z,14.40
2023-01-11T05:10:21.917Z,14.90
2023-01-11T05:12:48.805Z,14.60
2023-01-11T05:15:15.621Z,13.80
2023-01-11T05:17:42.478Z,14.10
2023-01-11T05:20:12.582Z,19.80
2023-01-11T05:22:39.735Z,15.90
2023-01-11T05:25:07.142Z,14.90
2023-01-11T05:27:33.963Z,14.10
2023-01-11T05:30:00.785Z,12.60
2023-01-11T05:32:27.661Z,13.00
2023-01-11T05:34:54.462Z,13.90
2023-01-11T05:37:21.232Z,13.00
2023-01-11T05:39:48.039Z,13.50
2023-01-11T05:42:15.089Z,13.90
2023-01-11T05:45:08.078Z,13.50
2023-01-11T05:47:34.915Z,13.60
2023-01-11T05:50:01.748Z,21.20
2023-01-11T05:52:28.634Z,17.60
2023-01-11T05:54:55.544Z,15.70
2023-01-11T05:57:22.407Z,16.20
2023-01-11T05:59:49.291Z,16.60
2023-01-11T06:02:16.218Z,14.80
2023-01-11T06:04:43.061Z,14.40
2023-01-11T06:07:10.289Z,16.00
2023-01-11T06:09:37.147Z,14.80
2023-01-11T06:12:04.066Z,15.80
2023-01-11T06:14:30.943Z,14.40
2023-01-11T06:16:57.841Z,15.30
2023-01-11T06:19:24.945Z,13.70
2023-01-11T06:21:51.794Z,14.10
2023-01-11T06:24:18.661Z,13.60
2023-01-11T06:26:45.486Z,14.40
2023-01-11T06:29:12.729Z,15.90
2023-01-11T06:31:39.696Z,15.80
2023-01-11T06:34:06.650Z,14.20
2023-01-11T06:36:33.540Z,15.30
2023-01-11T06:39:00.403Z,15.40
2023-01-11T06:41:28.990Z,15.10
2023-01-11T06:43:55.998Z,16.60
2023-01-11T06:46:23.092Z,15.10
2023-01-11T06:48:49.958Z,15.50
2023-01-11T06:51:17.148Z,13.60
2023-01-11T06:53:44.191Z,14.50
2023-01-11T06:56:17.695Z,15.00
2023-01-11T06:58:46.926Z,14.50
2023-01-11T07:01:13.916Z,14.60
2023-01-11T07:03:41.902Z,13.90
2023-01-11T07:06:08.859Z,13.80
2023-01-11T07:08:35.716Z,13.40
2023-01-11T07:11:02.604Z,14.30
2023-01-11T07:13:29.792Z,14.30
2023-01-11T07:15:57.778Z,12.70
2023-01-11T07:18:24.829Z,13.90
2023-01-11T07:20:52.256Z,14.40
2023-01-11T07:23:19.587Z,15.50
2023-01-11T07:25:48.792Z,14.70
2023-01-11T07:28:15.679Z,14.30
2023-01-11T07:30:56.847Z,14.20
2023-01-11T07:33:26.082Z,15.20
2023-01-11T07:35:53.038Z,15.30
2023-01-11T07:38:19.929Z,15.90
2023-01-11T07:40:47.055Z,15.10
2023-01-11T07:43:19.856Z,14.70
2023-01-11T07:45:51.901Z,15.10
2023-01-11T07:48:25.285Z,14.90
2023-01-11T07:50:53.502Z,14.20
2023-01-11T07:53:21.682Z,14.60
2023-01-11T07:55:48.797Z,14.10
2023-01-11T07:58:16.079Z,13.90
2023-01-11T08:00:43.324Z,14.10
2023-01-11T08:03:10.566Z,14.40
2023-01-11T08:05:38.065Z,14.30
2023-01-11T08:08:05.765Z,15.00
2023-01-11T08:10:33.666Z,13.80
2023-01-11T08:13:19.622Z,13.80
2023-01-11T08:15:46.651Z,14.80
2023-01-11T08:18:13.625Z,14.80
2023-01-11T08:20:41.062Z,13.60
2023-01-11T08:23:12.281Z,14.30
2023-01-11T08:25:39.312Z,15.00
2023-01-11T08:28:07.723Z,14.30
2023-01-11T08:30:36.298Z,14.30
2023-01-11T08:33:05.048Z,13.90
2023-01-11T08:35:36.995Z,13.70
2023-01-11T08:38:04.273Z,13.50
2023-01-11T08:40:31.230Z,13.80
2023-01-11T08:42:58.458Z,13.40
2023-01-11T08:45:26.107Z,13.70
2023-01-11T08:47:53.825Z,12.90
2023-01-11T08:50:22.548Z,15.20
2023-01-11T08:52:51.547Z,13.90
2023-01-11T08:55:21.782Z,14.20
2023-01-11T09:00:33.542Z,12.60
2023-01-11T09:03:01.671Z,12.10
2023-01-11T09:05:29.065Z,12.50
2023-01-11T09:07:56.331Z,12.60
2023-01-11T09:10:27.445Z,11.50
2023-01-11T09:12:54.645Z,10.30
2023-01-11T09:15:22.294Z,10.20
2023-01-11T09:17:52.505Z,11.10
2023-01-11T09:20:21.206Z,10.40
2023-01-11T09:22:52.671Z,11.00
2023-01-11T09:25:20.963Z,9.50
2023-01-11T09:27:50.709Z,10.60
2023-01-11T09:30:20.809Z,10.90
2023-01-11T09:32:48.760Z,10.70
2023-01-11T09:35:17.116Z,10.60
2023-01-11T09:37:56.470Z,10.90
2023-01-11T09:41:00.031Z,10.70
2023-01-11T09:43:29.666Z,9.80
2023-01-11T09:46:01.245Z,9.70
2023-01-11T09:48:38.331Z,10.00
2023-01-11T09:51:06.493Z,8.80
2023-01-11T09:53:38.242Z,8.80
2023-01-11T09:56:12.380Z,9.80
2023-01-11T09:58:59.900Z,9.00
2023-01-11T10:02:25.483Z,9.50
2023-01-11T10:05:32.138Z,10.30
2023-01-11T10:18:33.760Z,11.00
2023-01-11T10:21:00.495Z,11.30
2023-01-11T10:23:41.156Z,11.00
2023-01-11T10:26:24.521Z,11.40
2023-01-11T10:29:17.257Z,11.40
2023-01-11T10:32:03.012Z,11.90
2023-01-11T10:34:34.875Z,11.70
2023-01-11T10:37:48.232Z,11.80
2023-01-11T10:40:35.194Z,12.60
2023-01-11T10:43:18.295Z,13.50
2023-01-11T10:45:52.207Z,12.60
2023-01-11T10:48:37.923Z,12.80
2023-01-11T10:51:20.075Z,13.30
2023-01-11T10:53:50.419Z,11.80
2023-01-11T10:56:42.986Z,11.80
2023-01-11T10:59:43.870Z,12.20
2023-01-11T11:02:41.508Z,12.50
2023-01-11T11:05:30.572Z,16.40
2023-01-11T11:08:14.691Z,18.60
2023-01-11T11:10:54.267Z,16.90
2023-01-11T11:13:41.317Z,19.50
2023-01-11T11:16:19.388Z,20.10
2023-01-11T11:18:46.827Z,17.90
2023-01-11T11:21:29.387Z,17.40
2023-01-11T11:24:02.212Z,17.40
2023-01-11T11:26:41.508Z,15.40
2023-01-11T11:29:11.716Z,16.80
2023-01-11T11:31:44.165Z,19.20
2023-01-11T11:34:22.417Z,16.20
2023-01-11T11:36:52.514Z,15.30
2023-01-11T11:39:29.367Z,14.90
2023-01-11T11:42:07.892Z,15.60
2023-01-11T11:44:35.682Z,14.30
2023-01-11T11:47:17.017Z,16.60
2023-01-11T11:49:44.585Z,16.50
2023-01-11T11:52:15.221Z,18.60
2023-01-11T11:54:51.984Z,16.50
2023-01-11T11:57:28.329Z,17.60
2023-01-11T12:00:05.674Z,18.00
2023-01-11T12:02:36.044Z,19.40
2023-01-11T12:05:09.719Z,20.80
2023-01-11T12:07:54.287Z,23.90
2023-01-11T12:10:25.252Z,24.20
2023-01-11T12:12:57.000Z,25.90
2023-01-11T12:15:37.678Z,24.80
2023-01-11T12:18:26.338Z,27.40
2023-01-11T12:20:54.111Z,25.20
2023-01-11T12:23:24.418Z,26.70
2023-01-11T13:14:02.260Z,27.80
2023-01-11T13:16:47.873Z,28.00
2023-01-11T13:19:42.708Z,25.60
2023-01-11T13:22:17.227Z,25.50
2023-01-11T13:24:48.963Z,26.00
2023-01-11T13:27:22.719Z,26.70
2023-01-11T13:29:56.108Z,27.00
2023-01-11T13:32:26.437Z,28.80
2023-01-11T13:35:00.185Z,27.40
2023-01-11T13:37:45.139Z,28.90
2023-01-11T13:40:30.822Z,29.50
2023-01-11T13:43:10.450Z,29.80
2023-01-11T13:45:44.227Z,28.70
2023-01-11T13:48:31.600Z,30.20
2023-01-11T13:51:29.022Z,31.20
2023-01-11T13:54:01.949Z,30.50
2023-01-11T13:56:36.519Z,28.40
2023-01-11T13:59:46.716Z,31.40
2023-01-11T14:02:19.497Z,29.40
2023-01-11T14:04:59.141Z,29.10
2023-01-11T14:07:56.073Z,26.60
2023-01-11T14:10:56.644Z,27.80
2023-01-11T14:14:07.659Z,27.50
2023-01-11T14:17:12.982Z,27.70
2023-01-11T14:20:17.684Z,27.90
2023-01-11T14:23:06.239Z,29.60
2023-01-11T14:25:33.184Z,28.40
2023-01-11T14:28:19.468Z,28.50
2023-01-11T14:31:27.588Z,28.20
2023-01-11T14:34:28.078Z,26.90
2023-01-11T14:37:26.249Z,28.80
2023-01-11T14:40:04.034Z,26.70
2023-01-11T14:42:34.353Z,27.40
2023-01-11T14:45:32.426Z,26.80
2023-01-11T14:47:59.577Z,27.80
2023-01-11T14:50:42.603Z,26.00
2023-01-11T14:53:17.323Z,26.10
2023-01-11T14:55:49.394Z,25.90
2023-01-11T14:58:19.849Z,26.70
2023-01-11T15:00:46.767Z,27.40
2023-01-11T15:03:18.529Z,26.10
2023-01-11T15:05:47.433Z,25.90
2023-01-11T15:08:14.270Z,25.10
2023-01-11T15:10:56.573Z,24.20
2023-01-11T15:13:49.931Z,23.30
2023-01-11T15:16:41.129Z,23.10
2023-01-11T15:19:36.132Z,22.60
2023-01-11T15:22:06.229Z,26.10
2023-01-11T15:24:35.844Z,23.80
2023-01-11T15:27:03.458Z,22.70
2023-01-11T15:29:32.624Z,22.70
2023-01-11T15:32:02.640Z,24.00
2023-01-11T15:34:32.775Z,24.00
2023-01-11T15:37:03.713Z,21.50
2023-01-11T15:39:52.465Z,20.80
2023-01-11T15:42:40.991Z,20.80
2023-01-11T15:45:24.009Z,20.00
2023-01-11T15:48:17.981Z,21.30
2023-01-11T15:50:51.179Z,19.80
2023-01-11T15:53:46.603Z,19.10
2023-01-11T15:56:45.754Z,20.50
2023-01-11T15:59:27.250Z,20.60
2023-01-11T16:02:03.199Z,17.90
2023-01-11T16:04:55.830Z,19.60
2023-01-11T16:07:40.706Z,19.20
2023-01-11T16:10:29.740Z,18.40
2023-01-11T16:13:27.604Z,19.20
2023-01-11T16:16:13.517Z,22.30
2023-01-11T16:18:46.480Z,27.10
2023-01-11T16:21:23.762Z,44.80
2023-01-11T16:23:50.805Z,38.00
2023-01-11T16:26:20.415Z,24.60
2023-01-11T16:28:52.397Z,56.60
2023-01-11T16:31:19.833Z,74.40
2023-01-11T16:33:49.594Z,47.20
2023-01-11T16:36:21.305Z,56.30
2023-01-11T16:38:54.530Z,70.00
2023-01-11T16:41:23.823Z,80.00
2023-01-11T16:44:02.543Z,70.40
2023-01-11T16:46:47.546Z,63.40
2023-01-11T16:49:19.944Z,32.10
2023-01-11T16:51:49.237Z,27.80
2023-01-11T16:54:25.440Z,31.80
2023-01-11T16:56:52.992Z,31.10
2023-01-11T16:59:27.408Z,28.30
2023-01-11T17:01:56.767Z,25.20
2023-01-11T17:04:30.443Z,21.20
2023-01-11T17:07:13.156Z,23.40
2023-01-11T17:09:43.715Z,31.50
2023-01-11T17:12:17.202Z,33.10
2023-01-11T17:14:50.542Z,29.40
2023-01-11T17:17:18.155Z,36.90
2023-01-11T17:19:50.882Z,21.40
2023-01-11T17:22:31.912Z,36.50
2023-01-11T17:25:21.866Z,37.20
2023-01-11T17:30:24.973Z,107.80
2023-01-11T17:32:55.116Z,32.70
2023-01-11T17:35:31.272Z,115.10
2023-01-11T17:38:02.419Z,69.10
2023-01-11T17:40:40.444Z,63.30
2023-01-11T17:43:38.988Z,63.10
2023-01-11T17:46:07.769Z,74.10
2023-01-11T17:48:35.546Z,45.40
2023-01-11T17:51:04.243Z,25.80
2023-01-11T17:53:33.029Z,39.40
2023-01-11T17:56:04.186Z,60.90
2023-01-11T17:58:33.832Z,69.40
2023-01-11T18:01:22.604Z,66.40
2023-01-11T18:03:53.676Z,98.10
2023-01-11T18:06:42.229Z,63.40
2023-01-11T18:09:31.075Z,93.90
2023-01-11T18:12:21.762Z,50.70
2023-01-11T18:14:56.940Z,50.60
2023-01-11T18:17:35.460Z,120.70
2023-01-11T18:20:25.285Z,41.00
2023-01-11T18:23:13.727Z,57.40
2023-01-11T18:25:40.883Z,76.40
2023-01-11T18:28:28.637Z,134.20
2023-01-11T18:31:00.411Z,134.90
2023-01-11T18:33:32.275Z,32.80
2023-01-11T18:36:02.246Z,26.40
2023-01-11T18:41:21.120Z,93.60
2023-01-11T18:43:48.074Z,85.00
2023-01-11T18:46:15.729Z,52.10
2023-01-11T18:48:43.822Z,62.80
2023-01-11T18:51:26.690Z,123.00
2023-01-11T18:53:53.578Z,93.70
2023-01-11T18:56:20.533Z,70.30
2023-01-11T18:58:47.493Z,52.50
2023-01-11T19:01:14.775Z,60.10
2023-01-11T19:03:43.751Z,55.20
2023-01-11T19:06:15.323Z,74.80
2023-01-11T19:08:43.065Z,49.10
2023-01-11T19:11:10.178Z,122.70
2023-01-11T19:13:37.379Z,120.60
2023-01-11T19:16:05.259Z,25.30
2023-01-11T19:18:35.317Z,261.70
2023-01-11T19:21:06.914Z,179.70
2023-01-11T19:23:34.585Z,35.50
2023-01-11T19:26:02.561Z,43.20
2023-01-11T19:28:30.738Z,113.50
2023-01-11T19:30:58.424Z,136.60
2023-01-11T19:33:25.976Z,36.90
2023-01-11T19:35:53.342Z,68.20
2023-01-11T19:38:20.806Z,76.80
2023-01-11T19:40:50.407Z,59.80
2023-01-11T19:43:17.869Z,42.20
2023-01-11T19:45:45.226Z,37.30
2023-01-11T19:48:12.809Z,41.30
2023-01-11T19:50:39.859Z,64.00
2023-01-11T19:53:07.209Z,36.80
2023-01-11T19:55:34.363Z,49.80
2023-01-11T19:58:02.950Z,96.20
2023-01-11T20:00:30.306Z,129.70
2023-01-11T20:02:57.741Z,51.70
2023-01-11T20:05:25.151Z,66.20
2023-01-11T20:07:54.227Z,54.50
2023-01-11T20:10:21.607Z,30.30
2023-01-11T20:12:48.848Z,35.20
2023-01-11T20:15:16.321Z,45.60
2023-01-11T20:17:43.878Z,37.30
2023-01-11T20:20:13.847Z,23.40
2023-01-11T20:22:46.387Z,22.50
2023-01-11T20:25:14.229Z,23.80
2023-01-11T20:27:41.399Z,24.50
2023-01-11T20:30:09.999Z,25.10
2023-01-11T20:32:41.959Z,23.80
2023-01-11T20:35:10.516Z,24.90
2023-01-11T20:37:37.696Z,25.40
2023-01-11T20:40:05.464Z,25.20
2023-01-11T20:42:32.522Z,26.70
2023-01-11T20:44:59.700Z,27.80
2023-01-11T20:47:27.462Z,26.60
2023-01-11T20:49:54.831Z,27.60
2023-01-11T20:52:22.364Z,28.00
2023-01-11T20:54:49.192Z,26.90
2023-01-11T20:57:16.167Z,26.70
2023-01-11T20:59:43.234Z,26.70
2023-01-11T21:02:11.695Z,26.40
2023-01-11T21:04:39.209Z,27.40
2023-01-11T21:07:06.725Z,28.00
2023-01-11T21:09:33.941Z,27.50
2023-01-11T21:12:01.139Z,27.20
2023-01-11T21:14:28.614Z,28.60
2023-01-11T21:16:56.091Z,27.40
2023-01-11T21:19:23.697Z,27.50
2023-01-11T21:21:51.419Z,27.10
2023-01-11T21:24:18.973Z,25.60
2023-01-11T21:26:48.148Z,26.50
2023-01-11T21:29:15.129Z,26.10
2023-01-11T21:31:43.057Z,24.40
2023-01-11T21:34:12.201Z,24.20
2023-01-11T21:36:39.892Z,25.10
2023-01-11T21:39:07.670Z,23.40
2023-01-11T21:41:53.311Z,23.30
2023-01-11T21:44:22.066Z,24.40
2023-01-11T21:46:50.327Z,22.30
2023-01-11T21:49:17.850Z,21.60
2023-01-11T21:51:45.209Z,23.20
2023-01-11T21:54:15.545Z,22.10
2023-01-11T21:56:42.914Z,21.60
2023-01-11T21:59:10.266Z,21.40
2023-01-11T22:01:39.687Z,20.90
2023-01-11T22:04:08.207Z,20.10
2023-01-11T22:06:37.266Z,20.20
2023-01-11T22:09:11.472Z,21.00
2023-01-11T22:11:39.723Z,19.10
2023-01-11T22:14:08.955Z,19.80
2023-01-11T22:16:37.697Z,18.70
2023-01-11T22:19:07.808Z,18.50
2023-01-11T22:21:36.363Z,18.60
2023-01-11T22:24:05.108Z,18.40
2023-01-11T22:26:35.183Z,18.60
2023-01-11T22:31:51.734Z,18.60
2023-01-11T22:34:19.464Z,17.50
2023-01-11T22:36:47.476Z,16.70
2023-01-11T22:39:16.786Z,18.70
2023-01-11T22:41:45.886Z,18.10
2023-01-11T22:44:13.868Z,17.40
2023-01-11T22:46:41.368Z,16.30
2023-01-11T22:49:08.422Z,18.10
2023-01-11T22:51:36.113Z,18.30
2023-01-11T22:54:03.599Z,17.30
2023-01-11T22:56:31.105Z,17.80
2023-01-11T22:58:58.380Z,18.20
2023-01-11T23:01:31.118Z,17.40
2023-01-11T23:03:59.335Z,18.10
2023-01-11T23:06:29.670Z,18.10
2023-01-11T23:08:57.435Z,16.80
2023-01-11T23:11:51.081Z,17.30
2023-01-11T23:14:19.487Z,18.70
2023-01-11T23:16:48.265Z,17.70
2023-01-11T23:19:17.642Z,16.40
2023-01-11T23:21:46.452Z,16.80
2023-01-11T23:24:15.760Z,17.10
2023-01-11T23:26:43.688Z,16.50
2023-01-11T23:29:10.886Z,16.60
2023-01-11T23:31:38.093Z,17.10
2023-01-11T23:34:08.165Z,17.00
2023-01-11T23:36:37.816Z,16.90
2023-01-11T23:39:12.627Z,15.60
2023-01-11T23:41:58.394Z,17.00
2023-01-11T23:44:25.338Z,17.00
2023-01-11T23:47:11.155Z,16.30
2023-01-11T23:49:38.069Z,15.70
2023-01-11T23:52:06.048Z,15.70
2023-01-11T23:54:34.046Z,16.70
2023-01-11T23:57:02.831Z,17.00
2023-01-11T23:59:30.708Z,16.90
